createdAt,value
2022-08-26T00:00:22.885Z,25.40
2022-08-26T00:02:53.445Z,25.40
2022-08-26T00:05:22.017Z,25.40
2022-08-26T00:07:52.722Z,25.40
2022-08-26T00:10:22.114Z,25.40
2022-08-26T00:12:54.392Z,25.40
2022-08-26T00:15:23.621Z,25.40
2022-08-26T00:17:53.452Z,25.40
2022-08-26T00:20:24.705Z,25.40
2022-08-26T00:22:54.798Z,25.40
2022-08-26T00:25:23.603Z,25.50
2022-08-26T00:27:53.895Z,25.50
2022-08-26T00:30:26.593Z,25.40
2022-08-26T00:32:55.709Z,25.50
2022-08-26T00:35:25.060Z,25.50
2022-08-26T00:37:57.657Z,25.50
2022-08-26T00:40:28.926Z,25.50
2022-08-26T00:42:57.574Z,25.50
2022-08-26T00:45:26.449Z,25.50
2022-08-26T00:47:57.629Z,25.50
2022-08-26T00:50:28.834Z,25.50
2022-08-26T00:52:59.270Z,25.50
2022-08-26T00:55:37.953Z,25.50
2022-08-26T00:58:07.499Z,25.50
2022-08-26T01:00:36.718Z,25.60
2022-08-26T01:03:05.735Z,25.50
2022-08-26T01:05:41.412Z,25.60
2022-08-26T01:08:10.217Z,25.60
2022-08-26T01:10:38.754Z,25.60
2022-08-26T01:13:11.398Z,25.70
2022-08-26T01:15:44.685Z,25.70
2022-08-26T01:18:14.553Z,25.80
2022-08-26T01:20:52.070Z,25.80
2022-08-26T01:23:28.029Z,25.90
2022-08-26T01:25:59.588Z,26.00
2022-08-26T01:28:33.276Z,26.00
2022-08-26T01:31:05.266Z,26.00
2022-08-26T01:33:40.035Z,26.00
2022-08-26T01:36:11.291Z,26.10
2022-08-26T01:38:41.089Z,26.10
2022-08-26T01:41:12.458Z,26.20
2022-08-26T01:43:49.278Z,26.20
2022-08-26T01:46:18.992Z,26.20
2022-08-26T01:48:49.680Z,26.20
2022-08-26T01:51:23.875Z,26.20
2022-08-26T01:53:52.414Z,26.30
2022-08-26T01:56:23.425Z,26.30
2022-08-26T01:58:59.750Z,26.30
2022-08-26T02:01:28.914Z,26.30
2022-08-26T02:04:06.987Z,26.40
2022-08-26T02:06:37.196Z,26.40
2022-08-26T02:09:06.760Z,26.40
2022-08-26T02:11:36.845Z,26.40
2022-08-26T02:14:09.182Z,26.50
2022-08-26T02:16:44.383Z,26.50
2022-08-26T02:19:17.381Z,26.50
2022-08-26T02:21:51.091Z,26.60
2022-08-26T02:24:22.584Z,26.70
2022-08-26T02:26:52.511Z,26.70
2022-08-26T02:29:24.822Z,26.70
2022-08-26T02:31:53.811Z,26.80
2022-08-26T02:34:28.233Z,26.80
2022-08-26T02:37:03.998Z,26.90
2022-08-26T02:39:32.943Z,26.90
2022-08-26T02:42:01.568Z,26.90
2022-08-26T02:44:30.182Z,26.90
2022-08-26T02:46:59.033Z,26.90
2022-08-26T02:49:28.812Z,26.90
2022-08-26T02:51:57.700Z,26.90
2022-08-26T02:54:26.252Z,26.90
2022-08-26T02:56:54.832Z,26.90
2022-08-26T02:59:24.446Z,26.90
2022-08-26T03:01:56.132Z,27.00
2022-08-26T03:04:26.124Z,27.10
2022-08-26T03:06:55.388Z,27.20
2022-08-26T03:09:24.529Z,27.30
2022-08-26T03:11:53.398Z,27.30
2022-08-26T03:14:22.405Z,27.40
2022-08-26T03:16:55.137Z,27.40
2022-08-26T03:19:25.208Z,27.40
2022-08-26T03:21:57.952Z,27.40
2022-08-26T03:24:27.114Z,27.40
2022-08-26T03:26:55.630Z,27.40
2022-08-26T03:29:42.642Z,27.40
2022-08-26T03:32:12.108Z,27.50
2022-08-26T03:34:40.582Z,27.40
2022-08-26T03:37:09.127Z,27.50
2022-08-26T03:39:38.253Z,27.50
2022-08-26T03:42:07.411Z,27.50
2022-08-26T03:44:36.269Z,27.50
2022-08-26T03:47:09.416Z,27.50
2022-08-26T03:49:38.072Z,27.50
2022-08-26T03:52:06.988Z,27.50
2022-08-26T03:54:35.799Z,27.50
2022-08-26T03:57:04.637Z,27.50
2022-08-26T03:59:33.610Z,27.50
2022-08-26T04:02:02.169Z,27.50
2022-08-26T04:04:30.963Z,27.50
2022-08-26T04:07:00.155Z,27.50
2022-08-26T04:09:28.825Z,27.50
2022-08-26T04:11:59.708Z,27.50
2022-08-26T04:14:28.951Z,27.50
2022-08-26T04:16:57.737Z,27.60
2022-08-26T04:19:27.349Z,27.60
2022-08-26T04:21:56.033Z,27.70
2022-08-26T04:24:26.392Z,27.80
2022-08-26T04:26:57.642Z,27.80
2022-08-26T04:29:27.392Z,27.80
2022-08-26T04:31:56.894Z,27.80
2022-08-26T04:34:28.385Z,27.80
2022-08-26T04:36:57.827Z,27.90
2022-08-26T04:39:27.750Z,27.80
2022-08-26T04:41:57.777Z,27.80
2022-08-26T04:44:28.556Z,27.80
2022-08-26T04:46:57.259Z,27.70
2022-08-26T04:49:27.494Z,27.70
2022-08-26T04:51:57.110Z,27.70
2022-08-26T04:54:25.881Z,27.70
2022-08-26T04:56:54.461Z,27.70
2022-08-26T04:59:23.063Z,27.70
2022-08-26T05:01:57.482Z,27.70
2022-08-26T05:04:26.638Z,27.70
2022-08-26T05:06:59.373Z,27.60
2022-08-26T05:09:31.858Z,27.70
2022-08-26T05:12:00.396Z,27.70
2022-08-26T05:14:29.152Z,27.70
2022-08-26T05:16:57.668Z,27.60
2022-08-26T05:19:28.001Z,27.60
2022-08-26T05:21:56.676Z,27.60
2022-08-26T05:24:25.510Z,27.60
2022-08-26T05:26:54.262Z,27.60
2022-08-26T05:29:25.096Z,27.60
2022-08-26T05:31:55.979Z,27.60
2022-08-26T05:34:30.085Z,27.60
2022-08-26T05:36:59.674Z,27.60
2022-08-26T05:39:28.299Z,27.60
2022-08-26T05:41:57.092Z,27.60
2022-08-26T05:44:25.629Z,27.60
2022-08-26T05:46:54.176Z,27.60
2022-08-26T05:49:26.418Z,27.60
2022-08-26T05:51:55.517Z,27.50
2022-08-26T05:54:24.180Z,27.50
2022-08-26T05:56:53.438Z,27.50
2022-08-26T05:59:24.693Z,27.40
2022-08-26T06:01:53.968Z,27.40
2022-08-26T06:04:22.954Z,27.30
2022-08-26T06:06:55.640Z,27.30
2022-08-26T06:09:24.679Z,27.20
2022-08-26T06:11:53.652Z,27.20
2022-08-26T06:14:22.365Z,27.20
2022-08-26T06:16:51.000Z,27.10
2022-08-26T06:19:20.371Z,27.10
2022-08-26T06:21:54.852Z,27.00
2022-08-26T06:24:42.326Z,27.00
2022-08-26T06:27:15.317Z,26.80
2022-08-26T06:29:46.265Z,26.60
2022-08-26T06:32:16.156Z,26.50
2022-08-26T06:34:46.061Z,26.40
2022-08-26T06:37:15.440Z,26.40
2022-08-26T06:39:44.111Z,26.30
2022-08-26T06:42:12.591Z,26.30
2022-08-26T06:44:44.777Z,26.20
2022-08-26T06:47:13.844Z,26.20
2022-08-26T06:49:44.219Z,26.20
2022-08-26T06:52:16.493Z,26.20
2022-08-26T06:54:48.575Z,26.10
2022-08-26T06:57:19.617Z,26.20
2022-08-26T06:59:51.074Z,26.20
2022-08-26T07:02:20.241Z,26.30
2022-08-26T07:04:51.185Z,26.30
2022-08-26T07:07:21.642Z,26.30
2022-08-26T07:09:52.448Z,26.40
2022-08-26T07:12:21.659Z,26.40
2022-08-26T07:14:50.720Z,26.50
2022-08-26T07:17:20.549Z,26.50
2022-08-26T07:19:50.152Z,26.60
2022-08-26T07:22:19.865Z,26.50
2022-08-26T07:24:48.423Z,26.50
2022-08-26T07:27:17.909Z,26.50
2022-08-26T07:29:46.927Z,26.50
2022-08-26T07:32:16.473Z,26.50
2022-08-26T07:34:45.134Z,26.40
2022-08-26T07:37:13.669Z,26.40
2022-08-26T07:39:43.410Z,26.40
2022-08-26T07:42:14.453Z,26.40
2022-08-26T07:44:43.566Z,26.40
2022-08-26T07:47:24.752Z,26.40
2022-08-26T07:49:54.919Z,26.40
2022-08-26T07:52:26.564Z,26.40
2022-08-26T07:54:57.484Z,26.40
2022-08-26T07:57:26.446Z,26.40
2022-08-26T07:59:55.565Z,26.50
2022-08-26T08:02:25.134Z,26.50
2022-08-26T08:04:54.075Z,26.50
2022-08-26T08:07:38.667Z,26.60
2022-08-26T08:10:14.086Z,26.60
2022-08-26T08:12:43.199Z,26.60
2022-08-26T08:15:14.925Z,26.60
2022-08-26T08:17:46.962Z,26.70
2022-08-26T08:20:20.427Z,26.70
2022-08-26T08:22:49.124Z,26.70
2022-08-26T08:25:17.821Z,26.70
2022-08-26T08:27:52.189Z,26.70
2022-08-26T08:30:23.118Z,26.70
2022-08-26T08:32:52.528Z,26.80
2022-08-26T08:35:24.100Z,26.80
2022-08-26T08:37:55.512Z,26.90
2022-08-26T08:40:26.230Z,26.90
2022-08-26T08:43:07.287Z,27.00
2022-08-26T08:45:38.190Z,27.00
2022-08-26T08:48:15.306Z,27.00
2022-08-26T08:50:47.419Z,27.00
2022-08-26T08:53:16.873Z,27.10
2022-08-26T08:55:45.461Z,27.10
2022-08-26T08:58:19.160Z,27.10
2022-08-26T09:00:51.902Z,27.10
2022-08-26T09:03:38.854Z,27.10
2022-08-26T09:06:18.019Z,27.10
2022-08-26T09:08:50.049Z,27.10
2022-08-26T09:11:20.064Z,27.10
2022-08-26T09:13:54.537Z,27.10
2022-08-26T09:16:26.548Z,27.10
2022-08-26T09:19:07.207Z,27.10
2022-08-26T09:21:35.750Z,27.10
2022-08-26T09:24:04.393Z,27.10
2022-08-26T09:26:44.955Z,27.00
2022-08-26T09:32:14.290Z,26.90
2022-08-26T09:34:54.584Z,26.70
2022-08-26T09:37:40.829Z,26.60
2022-08-26T09:40:14.256Z,26.40
2022-08-26T09:42:43.246Z,26.40
2022-08-26T09:45:13.972Z,26.40
2022-08-26T09:47:48.352Z,26.30
2022-08-26T09:50:31.088Z,26.30
2022-08-26T09:53:05.504Z,26.30
2022-08-26T09:55:39.285Z,26.30
2022-08-26T09:58:09.084Z,26.20
2022-08-26T10:00:39.626Z,26.20
2022-08-26T10:03:11.998Z,26.20
2022-08-26T10:05:45.508Z,26.10
2022-08-26T10:08:29.047Z,26.20
2022-08-26T10:10:59.203Z,26.20
2022-08-26T10:13:42.237Z,26.20
2022-08-26T10:16:16.927Z,26.20
2022-08-26T10:19:00.310Z,26.30
2022-08-26T10:21:43.967Z,26.30
2022-08-26T10:24:13.458Z,26.30
2022-08-26T10:26:58.922Z,26.30
2022-08-26T10:34:58.801Z,26.30
2022-08-26T10:37:32.268Z,26.30
2022-08-26T10:40:20.237Z,26.30
2022-08-26T10:42:54.583Z,26.30
2022-08-26T10:45:26.520Z,26.30
2022-08-26T10:47:55.030Z,26.30
2022-08-26T10:50:25.522Z,26.30
2022-08-26T10:53:00.136Z,26.30
2022-08-26T10:55:37.377Z,26.30
2022-08-26T10:58:09.156Z,26.40
2022-08-26T11:01:03.246Z,26.40
2022-08-26T11:03:42.839Z,26.40
2022-08-26T11:06:20.487Z,26.40
2022-08-26T11:08:56.607Z,26.40
2022-08-26T11:11:43.378Z,26.40
2022-08-26T11:14:11.905Z,26.30
2022-08-26T11:16:43.694Z,26.40
2022-08-26T11:19:14.497Z,26.30
2022-08-26T11:21:54.135Z,26.40
2022-08-26T11:24:42.578Z,26.40
2022-08-26T11:27:34.678Z,26.40
2022-08-26T11:30:09.601Z,26.40
2022-08-26T11:32:41.942Z,26.40
2022-08-26T11:35:15.428Z,26.40
2022-08-26T11:37:46.498Z,26.40
2022-08-26T11:40:17.184Z,26.40
2022-08-26T11:42:53.190Z,26.40
2022-08-26T11:45:24.978Z,26.40
2022-08-26T11:47:54.062Z,26.40
2022-08-26T11:50:24.968Z,26.40
2022-08-26T11:53:07.694Z,26.40
2022-08-26T11:55:38.279Z,26.40
2022-08-26T11:58:09.080Z,26.40
2022-08-26T12:00:51.321Z,26.40
2022-08-26T12:03:25.287Z,26.40
2022-08-26T12:05:54.897Z,26.50
2022-08-26T12:08:27.953Z,26.40
2022-08-26T12:11:10.843Z,26.50
2022-08-26T12:13:40.514Z,26.50
2022-08-26T12:16:11.565Z,26.50
2022-08-26T12:18:40.570Z,26.50
2022-08-26T12:21:20.856Z,26.50
2022-08-26T12:23:55.905Z,26.30
2022-08-26T12:26:29.956Z,25.90
2022-08-26T12:29:20.362Z,25.60
2022-08-26T12:31:53.109Z,25.20
2022-08-26T12:34:21.964Z,24.80
2022-08-26T12:39:28.645Z,24.40
2022-08-26T12:41:58.622Z,24.30
2022-08-26T12:44:34.796Z,24.20
2022-08-26T12:47:05.839Z,24.10
2022-08-26T12:49:34.658Z,24.10
2022-08-26T12:52:03.555Z,24.00
2022-08-26T12:54:56.552Z,24.00
2022-08-26T12:57:30.420Z,24.00
2022-08-26T13:00:17.859Z,24.00
2022-08-26T13:02:47.620Z,24.00
2022-08-26T13:05:23.610Z,24.00
2022-08-26T13:08:12.053Z,24.10
2022-08-26T13:10:42.178Z,24.10
2022-08-26T13:13:10.966Z,24.10
2022-08-26T13:15:39.944Z,24.10
2022-08-26T13:18:09.347Z,24.20
2022-08-26T13:20:42.379Z,24.20
2022-08-26T13:23:11.571Z,24.20
2022-08-26T13:25:43.442Z,24.20
2022-08-26T13:28:12.304Z,24.20
2022-08-26T13:30:41.401Z,24.30
2022-08-26T13:33:12.353Z,24.30
2022-08-26T13:35:43.957Z,24.30
2022-08-26T13:38:33.495Z,24.30
2022-08-26T13:41:04.425Z,24.40
2022-08-26T13:43:33.728Z,24.40
2022-08-26T13:46:02.892Z,24.40
2022-08-26T13:48:31.855Z,24.50
2022-08-26T13:51:00.618Z,24.50
2022-08-26T13:53:31.762Z,24.50
2022-08-26T13:56:01.034Z,24.40
2022-08-26T13:58:29.882Z,24.40
2022-08-26T14:00:59.515Z,24.40
2022-08-26T14:03:28.419Z,24.50
2022-08-26T14:05:57.313Z,24.50
2022-08-26T14:08:26.164Z,24.50
2022-08-26T14:10:55.049Z,24.50
2022-08-26T14:13:23.979Z,24.50
2022-08-26T14:15:53.116Z,24.50
2022-08-26T14:18:24.847Z,24.50
2022-08-26T14:20:56.391Z,24.50
2022-08-26T14:23:25.501Z,24.50
2022-08-26T14:25:54.577Z,24.50
2022-08-26T14:28:23.397Z,24.50
2022-08-26T14:30:55.284Z,24.50
2022-08-26T14:33:26.414Z,24.50
2022-08-26T14:36:15.000Z,24.50
2022-08-26T14:38:43.859Z,24.50
2022-08-26T14:41:12.739Z,24.50
2022-08-26T14:43:47.138Z,24.50
2022-08-26T14:46:16.325Z,24.50
2022-08-26T14:48:45.431Z,24.50
2022-08-26T14:51:14.290Z,24.50
2022-08-26T14:54:01.249Z,24.50
2022-08-26T14:56:31.714Z,24.50
2022-08-26T14:59:00.500Z,24.50
2022-08-26T15:01:31.095Z,24.50
2022-08-26T15:04:03.077Z,24.50
2022-08-26T15:06:33.265Z,24.50
2022-08-26T15:09:02.211Z,24.50
2022-08-26T15:11:31.057Z,24.60
2022-08-26T15:14:01.157Z,24.60
2022-08-26T15:16:30.544Z,24.50
2022-08-26T15:18:59.836Z,24.50
2022-08-26T15:21:28.690Z,24.50
2022-08-26T15:23:57.492Z,24.50
2022-08-26T15:26:26.344Z,24.50
2022-08-26T15:28:55.200Z,24.50
2022-08-26T15:31:32.301Z,24.50
2022-08-26T15:34:04.680Z,24.50
2022-08-26T15:36:33.810Z,24.50
2022-08-26T15:39:02.965Z,24.50
2022-08-26T15:41:34.736Z,24.50
2022-08-26T15:44:04.652Z,24.50
2022-08-26T15:46:33.617Z,24.50
2022-08-26T15:49:02.759Z,24.50
2022-08-26T15:51:33.642Z,24.50
2022-08-26T15:54:03.487Z,24.50
2022-08-26T15:56:35.585Z,24.60
2022-08-26T15:59:05.821Z,24.60
2022-08-26T16:01:35.465Z,24.60
2022-08-26T16:04:04.477Z,24.60
2022-08-26T16:06:34.559Z,24.70
2022-08-26T16:09:03.355Z,24.60
2022-08-26T16:11:32.374Z,24.60
2022-08-26T16:14:00.944Z,24.60
2022-08-26T16:16:29.470Z,24.60
2022-08-26T16:18:58.010Z,24.60
2022-08-26T16:21:29.696Z,24.60
2022-08-26T16:24:01.439Z,24.60
2022-08-26T16:26:30.861Z,24.60
2022-08-26T16:28:59.647Z,24.60
2022-08-26T16:31:28.313Z,24.60
2022-08-26T16:33:56.849Z,24.60
2022-08-26T16:36:25.403Z,24.60
2022-08-26T16:38:57.366Z,24.60
2022-08-26T16:41:26.972Z,24.70
2022-08-26T16:43:56.018Z,24.70
2022-08-26T16:46:26.747Z,24.70
2022-08-26T16:48:56.134Z,24.70
2022-08-26T16:51:25.688Z,24.80
2022-08-26T16:53:55.045Z,24.80
2022-08-26T16:56:30.679Z,24.80
2022-08-26T16:59:06.165Z,24.80
2022-08-26T17:01:34.819Z,24.80
2022-08-26T17:04:03.330Z,24.80
2022-08-26T17:06:31.954Z,24.80
2022-08-26T17:09:00.433Z,24.80
2022-08-26T17:11:29.015Z,24.70
2022-08-26T17:13:58.585Z,24.70
2022-08-26T17:16:29.211Z,24.70
2022-08-26T17:18:58.615Z,24.70
2022-08-26T17:21:27.853Z,24.70
2022-08-26T17:23:57.375Z,24.70
2022-08-26T17:26:26.071Z,24.70
2022-08-26T17:28:54.646Z,24.70
2022-08-26T17:31:24.489Z,24.70
2022-08-26T17:33:54.026Z,24.70
2022-08-26T17:36:27.939Z,24.70
2022-08-26T17:38:57.852Z,24.70
2022-08-26T17:41:26.919Z,24.70
2022-08-26T17:43:55.694Z,24.70
2022-08-26T17:46:24.785Z,24.70
2022-08-26T17:48:53.638Z,24.80
2022-08-26T17:51:23.785Z,24.80
2022-08-26T17:53:53.051Z,24.80
2022-08-26T17:56:25.275Z,24.80
2022-08-26T17:58:54.651Z,24.80
2022-08-26T18:01:27.263Z,24.80
2022-08-26T18:04:00.239Z,24.90
2022-08-26T18:06:29.942Z,24.90
2022-08-26T18:08:59.257Z,24.90
2022-08-26T18:11:28.248Z,25.00
2022-08-26T18:13:56.751Z,25.00
2022-08-26T18:16:25.866Z,25.00
2022-08-26T18:18:54.942Z,25.00
2022-08-26T18:21:24.897Z,25.00
2022-08-26T18:23:54.364Z,24.90
2022-08-26T18:26:30.010Z,24.90
2022-08-26T18:28:59.100Z,24.90
2022-08-26T18:31:28.117Z,24.90
2022-08-26T18:33:56.744Z,24.90
2022-08-26T18:36:29.602Z,24.90
2022-08-26T18:38:58.451Z,24.90
2022-08-26T18:41:28.848Z,24.90
2022-08-26T18:43:57.906Z,24.90
2022-08-26T18:46:27.313Z,24.90
2022-08-26T18:48:56.443Z,24.90
2022-08-26T18:51:27.950Z,24.90
2022-08-26T18:53:56.863Z,25.00
2022-08-26T18:56:26.306Z,25.00
2022-08-26T18:58:54.982Z,25.00
2022-08-26T19:01:27.237Z,25.00
2022-08-26T19:03:56.922Z,25.00
2022-08-26T19:06:27.265Z,25.00
2022-08-26T19:08:57.927Z,25.00
2022-08-26T19:11:31.452Z,25.10
2022-08-26T19:14:03.545Z,25.10
2022-08-26T19:16:32.894Z,25.10
2022-08-26T19:19:02.954Z,25.10
2022-08-26T19:21:34.234Z,25.10
2022-08-26T19:24:04.010Z,25.10
2022-08-26T19:26:33.046Z,25.10
2022-08-26T19:29:01.854Z,25.00
2022-08-26T19:31:30.447Z,25.00
2022-08-26T19:34:00.019Z,25.00
2022-08-26T19:36:29.786Z,25.00
2022-08-26T19:38:58.530Z,24.90
2022-08-26T19:41:37.105Z,24.90
2022-08-26T19:44:08.056Z,24.90
2022-08-26T19:49:10.859Z,24.90
2022-08-26T19:51:39.426Z,25.00
2022-08-26T19:54:07.931Z,25.00
2022-08-26T19:56:36.451Z,25.00
2022-08-26T19:59:05.015Z,25.00
2022-08-26T20:01:33.568Z,25.10
2022-08-26T20:04:02.412Z,25.10
2022-08-26T20:06:31.070Z,25.10
2022-08-26T20:08:59.567Z,25.20
2022-08-26T20:11:28.112Z,25.20
2022-08-26T20:13:56.669Z,25.20
2022-08-26T20:16:25.190Z,25.20
2022-08-26T20:19:11.898Z,25.10
2022-08-26T20:21:40.950Z,25.20
2022-08-26T20:24:16.294Z,25.10
2022-08-26T20:26:45.766Z,25.20
2022-08-26T20:29:17.045Z,25.10
2022-08-26T20:31:45.871Z,25.10
2022-08-26T20:34:15.156Z,25.10
2022-08-26T20:36:44.121Z,25.00
2022-08-26T20:39:12.870Z,25.00
2022-08-26T20:41:41.863Z,25.00
2022-08-26T20:44:10.634Z,24.90
2022-08-26T20:46:39.750Z,24.90
2022-08-26T20:49:08.818Z,24.90
2022-08-26T20:51:41.370Z,24.90
2022-08-26T20:54:10.350Z,24.90
2022-08-26T20:56:39.468Z,24.90
2022-08-26T20:59:08.672Z,24.90
2022-08-26T21:01:41.975Z,24.90
2022-08-26T21:04:13.088Z,24.90
2022-08-26T21:06:45.140Z,24.90
2022-08-26T21:09:20.798Z,24.90
2022-08-26T21:11:50.044Z,24.90
2022-08-26T21:14:20.058Z,25.00
2022-08-26T21:16:48.648Z,25.00
2022-08-26T21:19:19.132Z,25.00
2022-08-26T21:21:49.486Z,25.00
2022-08-26T21:24:18.150Z,25.00
2022-08-26T21:26:46.970Z,25.00
2022-08-26T21:29:15.695Z,25.00
2022-08-26T21:31:46.411Z,25.10
2022-08-26T21:34:18.050Z,25.00
2022-08-26T21:36:47.278Z,25.00
2022-08-26T21:39:15.882Z,25.00
2022-08-26T21:41:45.015Z,25.10
2022-08-26T21:44:14.642Z,25.10
2022-08-26T21:46:44.446Z,25.10
2022-08-26T21:49:14.124Z,25.10
2022-08-26T21:51:44.270Z,25.20
2022-08-26T21:54:13.850Z,25.20
2022-08-26T21:56:45.695Z,25.20
2022-08-26T21:59:14.997Z,25.20
2022-08-26T22:01:43.541Z,25.20
2022-08-26T22:04:12.227Z,25.20
2022-08-26T22:06:43.450Z,25.20
2022-08-26T22:09:13.365Z,25.20
2022-08-26T22:11:42.119Z,25.20
2022-08-26T22:14:11.214Z,25.20
2022-08-26T22:16:39.821Z,25.30
2022-08-26T22:19:13.435Z,25.30
2022-08-26T22:21:46.390Z,25.30
2022-08-26T22:24:14.895Z,25.30
2022-08-26T22:26:43.802Z,25.30
2022-08-26T22:29:12.347Z,25.40
2022-08-26T22:31:41.207Z,25.40
2022-08-26T22:34:11.089Z,25.40
2022-08-26T22:36:43.662Z,25.40
2022-08-26T22:39:16.685Z,25.40
2022-08-26T22:41:46.141Z,25.50
2022-08-26T22:44:14.689Z,25.40
2022-08-26T22:46:43.420Z,25.40
2022-08-26T22:49:13.762Z,25.40
2022-08-26T22:51:42.263Z,25.40
2022-08-26T22:54:10.857Z,25.40
2022-08-26T22:56:39.738Z,25.40
2022-08-26T22:59:09.073Z,25.40
2022-08-26T23:01:38.401Z,25.40
2022-08-26T23:04:07.766Z,25.40
2022-08-26T23:06:37.689Z,25.40
2022-08-26T23:09:07.786Z,25.50
2022-08-26T23:11:36.360Z,25.50
2022-08-26T23:14:06.435Z,25.50
2022-08-26T23:16:39.278Z,25.40
2022-08-26T23:19:09.358Z,25.50
2022-08-26T23:21:37.903Z,25.50
2022-08-26T23:24:07.274Z,25.50
2022-08-26T23:26:36.224Z,25.50
2022-08-26T23:29:06.099Z,25.40
2022-08-26T23:31:35.120Z,25.30
2022-08-26T23:34:21.589Z,25.40
2022-08-26T23:36:50.573Z,25.30
2022-08-26T23:39:19.060Z,25.30
2022-08-26T23:41:47.694Z,25.40
2022-08-26T23:44:16.201Z,25.40
2022-08-26T23:46:44.857Z,25.40
2022-08-26T23:49:13.437Z,25.40
2022-08-26T23:51:59.781Z,25.40
2022-08-26T23:54:32.855Z,25.50
2022-08-26T23:57:01.373Z,25.50
2022-08-26T23:59:29.885Z,25.50
